sensor_id;sensor_type;location;lat;lon;timestamp;temperature;humidity
9668;DHT22;4872;48.316;10.650;2023-04-29T04:06:36;11.70;99.90
9668;DHT22;4872;48.316;10.650;2023-04-29T04:09:03;11.70;99.90
9668;DHT22;4872;48.316;10.650;2023-04-29T04:11:30;11.70;99.90
9668;DHT22;4872;48.316;10.650;2023-04-29T04:13:57;11.80;99.90
9668;DHT22;4872;48.316;10.650;2023-04-29T04:16:23;11.80;99.90
9668;DHT22;4872;48.316;10.650;2023-04-29T04:18:50;11.80;99.90
9668;DHT22;4872;48.316;10.650;2023-04-29T04:21:17;11.80;99.90
9668;DHT22;4872;48.316;10.650;2023-04-29T04:23:45;11.90;99.90
9668;DHT22;4872;48.316;10.650;2023-04-29T04:26:12;11.90;99.90
9668;DHT22;4872;48.316;10.650;2023-04-29T04:28:38;11.90;99.90
9668;DHT22;4872;48.316;10.650;2023-04-29T04:31:05;12.00;99.90
9668;DHT22;4872;48.316;10.650;2023-04-29T04:33:32;12.00;99.90
9668;DHT22;4872;48.316;10.650;2023-04-29T04:35:59;12.00;99.90
9668;DHT22;4872;48.316;10.650;2023-04-29T04:38:26;12.10;99.90
9668;DHT22;4872;48.316;10.650;2023-04-29T04:40:54;12.10;99.90
9668;DHT22;4872;48.316;10.650;2023-04-29T04:43:21;12.10;99.90
9668;DHT22;4872;48.316;10.650;2023-04-29T04:45:47;12.10;99.90
9668;DHT22;4872;48.316;10.650;2023-04-29T04:48:14;12.20;99.90
9668;DHT22;4872;48.316;10.650;2023-04-29T04:50:41;12.20;99.90
9668;DHT22;4872;48.316;10.650;2023-04-29T04:53:08;12.20;99.90
9668;DHT22;4872;48.316;10.650;2023-04-29T04:55:34;12.20;99.90
9668;DHT22;4872;48.316;10.650;2023-04-29T04:58:02;12.20;99.90
9668;DHT22;4872;48.316;10.650;2023-04-29T05:00:29;12.60;99.90
9668;DHT22;4872;48.316;10.650;2023-04-29T05:02:56;12.30;99.90
9668;DHT22;4872;48.316;10.650;2023-04-29T05:05:23;12.30;99.90
9668;DHT22;4872;48.316;10.650;2023-04-29T05:07:49;12.30;99.90
9668;DHT22;4872;48.316;10.650;2023-04-29T05:10:16;12.40;99.90
9668;DHT22;4872;48.316;10.650;2023-04-29T05:12:43;12.30;99.90
9668;DHT22;4872;48.316;10.650;2023-04-29T05:15:11;12.70;99.90
9668;DHT22;4872;48.316;10.650;2023-04-29T05:17:39;12.40;99.90
9668;DHT22;4872;48.316;10.650;2023-04-29T05:20:07;12.40;99.90
9668;DHT22;4872;48.316;10.650;2023-04-29T05:22:34;12.40;99.90
9668;DHT22;4872;48.316;10.650;2023-04-29T05:25:00;12.40;99.90
9668;DHT22;4872;48.316;10.650;2023-04-29T05:27:28;12.50;99.90
9668;DHT22;4872;48.316;10.650;2023-04-29T05:29:55;12.80;99.90
9668;DHT22;4872;48.316;10.650;2023-04-29T05:32:23;12.60;99.90
9668;DHT22;4872;48.316;10.650;2023-04-29T05:34:50;12.60;99.90
9668;DHT22;4872;48.316;10.650;2023-04-29T05:37:17;12.70;99.90
9668;DHT22;4872;48.316;10.650;2023-04-29T05:39:43;12.70;99.90
9668;DHT22;4872;48.316;10.650;2023-04-29T05:42:10;12.80;99.90
9668;DHT22;4872;48.316;10.650;2023-04-29T05:44:37;12.80;99.90
9668;DHT22;4872;48.316;10.650;2023-04-29T05:47:04;12.90;99.90
9668;DHT22;4872;48.316;10.650;2023-04-29T05:49:32;12.90;99.90
9668;DHT22;4872;48.316;10.650;2023-04-29T05:51:58;12.90;99.90
9668;DHT22;4872;48.316;10.650;2023-04-29T05:54:28;12.90;99.90
9668;DHT22;4872;48.316;10.650;2023-04-29T05:56:55;12.90;99.90
9668;DHT22;4872;48.316;10.650;2023-04-29T05:59:22;13.00;99.90
9668;DHT22;4872;48.316;10.650;2023-04-29T06:01:48;13.10;99.90
9668;DHT22;4872;48.316;10.650;2023-04-29T06:04:15;13.10;99.90
9668;DHT22;4872;48.316;10.650;2023-04-29T06:06:43;13.10;99.90
9668;DHT22;4872;48.316;10.650;2023-04-29T06:09:10;13.10;99.90
9668;DHT22;4872;48.316;10.650;2023-04-29T06:11:39;13.10;99.90
9668;DHT22;4872;48.316;10.650;2023-04-29T06:14:06;13.20;99.90
9668;DHT22;4872;48.316;10.650;2023-04-29T06:16:33;13.20;99.90
9668;DHT22;4872;48.316;10.650;2023-04-29T06:18:59;13.20;99.90
9668;DHT22;4872;48.316;10.650;2023-04-29T06:21:26;13.60;99.90
9668;DHT22;4872;48.316;10.650;2023-04-29T06:23:54;13.30;99.90
9668;DHT22;4872;48.316;10.650;2023-04-29T06:26:21;13.30;99.90
9668;DHT22;4872;48.316;10.650;2023-04-29T06:28:48;13.30;99.90
9668;DHT22;4872;48.316;10.650;2023-04-29T06:31:15;13.30;99.90
9668;DHT22;4872;48.316;10.650;2023-04-29T06:33:42;13.30;99.90
9668;DHT22;4872;48.316;10.650;2023-04-29T06:36:09;13.40;99.90
9668;DHT22;4872;48.316;10.650;2023-04-29T06:38:35;13.40;99.90
9668;DHT22;4872;48.316;10.650;2023-04-29T06:41:03;13.50;99.90
9668;DHT22;4872;48.316;10.650;2023-04-29T06:43:30;13.60;99.90
9668;DHT22;4872;48.316;10.650;2023-04-29T06:45:57;13.70;99.90
9668;DHT22;4872;48.316;10.650;2023-04-29T06:48:24;13.70;99.90
9668;DHT22;4872;48.316;10.650;2023-04-29T06:50:53;13.80;99.90
9668;DHT22;4872;48.316;10.650;2023-04-29T06:53:20;13.70;99.90
9668;DHT22;4872;48.316;10.650;2023-04-29T06:55:47;13.70;99.90
9668;DHT22;4872;48.316;10.650;2023-04-29T06:58:15;13.70;99.90
9668;DHT22;4872;48.316;10.650;2023-04-29T07:00:43;13.80;99.90
9668;DHT22;4872;48.316;10.650;2023-04-29T07:03:11;13.90;99.90
9668;DHT22;4872;48.316;10.650;2023-04-29T07:05:37;13.90;99.90
9668;DHT22;4872;48.316;10.650;2023-04-29T07:08:06;13.90;99.90
9668;DHT22;4872;48.316;10.650;2023-04-29T07:10:33;13.90;99.90
9668;DHT22;4872;48.316;10.650;2023-04-29T07:13:00;13.80;99.90
9668;DHT22;4872;48.316;10.650;2023-04-29T07:15:34;13.80;99.90
9668;DHT22;4872;48.316;10.650;2023-04-29T07:18:02;13.70;99.90
9668;DHT22;4872;48.316;10.650;2023-04-29T07:20:29;13.70;99.90
9668;DHT22;4872;48.316;10.650;2023-04-29T07:22:56;13.80;99.90
9668;DHT22;4872;48.316;10.650;2023-04-29T07:25:23;13.80;99.90
9668;DHT22;4872;48.316;10.650;2023-04-29T07:27:51;13.90;99.90
9668;DHT22;4872;48.316;10.650;2023-04-29T07:30:18;14.00;99.90
9668;DHT22;4872;48.316;10.650;2023-04-29T07:32:46;14.10;99.90
9668;DHT22;4872;48.316;10.650;2023-04-29T07:35:12;14.20;99.90
9668;DHT22;4872;48.316;10.650;2023-04-29T07:37:39;15.00;99.90
9668;DHT22;4872;48.316;10.650;2023-04-29T07:40:08;14.40;99.90
9668;DHT22;4872;48.316;10.650;2023-04-29T07:42:35;14.30;99.90
9668;DHT22;4872;48.316;10.650;2023-04-29T07:45:02;14.30;99.90
9668;DHT22;4872;48.316;10.650;2023-04-29T07:47:29;14.40;99.90
9668;DHT22;4872;48.316;10.650;2023-04-29T07:49:57;14.40;99.90
9668;DHT22;4872;48.316;10.650;2023-04-29T07:52:23;14.50;99.90
9668;DHT22;4872;48.316;10.650;2023-04-29T07:54:50;14.60;99.90
9668;DHT22;4872;48.316;10.650;2023-04-29T07:57:17;14.70;99.90
9668;DHT22;4872;48.316;10.650;2023-04-29T07:59:44;14.80;99.90
9668;DHT22;4872;48.316;10.650;2023-04-29T08:02:11;14.90;99.90
9668;DHT22;4872;48.316;10.650;2023-04-29T08:04:38;14.90;99.90
9668;DHT22;4872;48.316;10.650;2023-04-29T08:07:07;14.90;99.90
9668;DHT22;4872;48.316;10.650;2023-04-29T08:09:33;15.00;99.90
9668;DHT22;4872;48.316;10.650;2023-04-29T08:12:00;15.10;99.90
9668;DHT22;4872;48.316;10.650;2023-04-29T08:14:27;15.10;99.90
9668;DHT22;4872;48.316;10.650;2023-04-29T08:16:54;14.90;99.90
9668;DHT22;4872;48.316;10.650;2023-04-29T08:19:20;14.80;99.90
9668;DHT22;4872;48.316;10.650;2023-04-29T08:21:47;14.70;99.90
9668;DHT22;4872;48.316;10.650;2023-04-29T08:24:15;14.50;99.90
9668;DHT22;4872;48.316;10.650;2023-04-29T08:26:42;14.50;99.90
9668;DHT22;4872;48.316;10.650;2023-04-29T08:29:09;14.40;99.90
9668;DHT22;4872;48.316;10.650;2023-04-29T08:31:35;14.60;99.90
9668;DHT22;4872;48.316;10.650;2023-04-29T08:34:02;14.70;99.90
9668;DHT22;4872;48.316;10.650;2023-04-29T08:36:29;15.00;99.90
9668;DHT22;4872;48.316;10.650;2023-04-29T08:38:55;15.10;99.90
9668;DHT22;4872;48.316;10.650;2023-04-29T08:41:23;15.20;99.90
9668;DHT22;4872;48.316;10.650;2023-04-29T08:43:51;15.30;99.90
9668;DHT22;4872;48.316;10.650;2023-04-29T08:46:18;15.50;99.90
9668;DHT22;4872;48.316;10.650;2023-04-29T08:48:45;15.60;99.90
9668;DHT22;4872;48.316;10.650;2023-04-29T08:51:12;15.50;99.90
9668;DHT22;4872;48.316;10.650;2023-04-29T08:53:39;15.60;99.90
9668;DHT22;4872;48.316;10.650;2023-04-29T08:56:11;15.60;99.90
9668;DHT22;4872;48.316;10.650;2023-04-29T08:58:41;15.70;99.90
9668;DHT22;4872;48.316;10.650;2023-04-29T09:01:09;15.90;99.90
9668;DHT22;4872;48.316;10.650;2023-04-29T09:03:42;15.70;99.90
9668;DHT22;4872;48.316;10.650;2023-04-29T09:06:10;15.60;99.90
9668;DHT22;4872;48.316;10.650;2023-04-29T09:08:38;15.30;99.90
9668;DHT22;4872;48.316;10.650;2023-04-29T09:11:07;15.20;99.90
9668;DHT22;4872;48.316;10.650;2023-04-29T09:13:34;15.10;99.90
9668;DHT22;4872;48.316;10.650;2023-04-29T09:16:03;15.10;99.90
9668;DHT22;4872;48.316;10.650;2023-04-29T09:18:44;14.70;99.90
9668;DHT22;4872;48.316;10.650;2023-04-29T09:21:16;14.70;99.90
9668;DHT22;4872;48.316;10.650;2023-04-29T09:23:43;14.90;99.90
9668;DHT22;4872;48.316;10.650;2023-04-29T09:26:10;15.10;99.90
9668;DHT22;4872;48.316;10.650;2023-04-29T09:28:38;15.50;99.90
9668;DHT22;4872;48.316;10.650;2023-04-29T09:31:09;15.60;99.90
9668;DHT22;4872;48.316;10.650;2023-04-29T09:33:49;15.80;99.90
9668;DHT22;4872;48.316;10.650;2023-04-29T09:36:34;16.00;99.90
9668;DHT22;4872;48.316;10.650;2023-04-29T09:39:01;16.30;99.90
9668;DHT22;4872;48.316;10.650;2023-04-29T09:41:28;16.20;99.90
9668;DHT22;4872;48.316;10.650;2023-04-29T09:44:02;16.10;99.90
9668;DHT22;4872;48.316;10.650;2023-04-29T09:46:31;16.10;99.90
9668;DHT22;4872;48.316;10.650;2023-04-29T09:48:58;16.00;99.90
9668;DHT22;4872;48.316;10.650;2023-04-29T09:51:25;15.90;99.90
9668;DHT22;4872;48.316;10.650;2023-04-29T09:53:51;15.90;99.90
9668;DHT22;4872;48.316;10.650;2023-04-29T09:56:18;15.80;99.90
9668;DHT22;4872;48.316;10.650;2023-04-29T09:58:45;15.80;99.90
9668;DHT22;4872;48.316;10.650;2023-04-29T10:01:12;15.80;99.90
9668;DHT22;4872;48.316;10.650;2023-04-29T10:03:45;15.90;99.90
9668;DHT22;4872;48.316;10.650;2023-04-29T10:06:16;15.90;99.90
9668;DHT22;4872;48.316;10.650;2023-04-29T10:08:45;15.90;99.90
9668;DHT22;4872;48.316;10.650;2023-04-29T10:11:14;16.00;99.90
9668;DHT22;4872;48.316;10.650;2023-04-29T10:13:41;16.10;99.90
9668;DHT22;4872;48.316;10.650;2023-04-29T10:16:14;16.10;99.00
9668;DHT22;4872;48.316;10.650;2023-04-29T10:18:48;15.90;97.90
9668;DHT22;4872;48.316;10.650;2023-04-29T10:21:17;15.80;98.50
9668;DHT22;4872;48.316;10.650;2023-04-29T10:23:47;15.90;98.50
9668;DHT22;4872;48.316;10.650;2023-04-29T10:26:15;15.80;97.80
9668;DHT22;4872;48.316;10.650;2023-04-29T10:28:44;15.80;97.30
9668;DHT22;4872;48.316;10.650;2023-04-29T10:31:13;15.90;98.30
9668;DHT22;4872;48.316;10.650;2023-04-29T10:33:42;16.20;97.30
9668;DHT22;4872;48.316;10.650;2023-04-29T10:36:13;16.20;97.30
9668;DHT22;4872;48.316;10.650;2023-04-29T10:38:44;16.30;97.70
9668;DHT22;4872;48.316;10.650;2023-04-29T10:41:18;16.40;97.40
9668;DHT22;4872;48.316;10.650;2023-04-29T10:43:46;16.40;97.10
9668;DHT22;4872;48.316;10.650;2023-04-29T10:46:20;16.40;97.30
9668;DHT22;4872;48.316;10.650;2023-04-29T10:48:48;16.40;97.10
9668;DHT22;4872;48.316;10.650;2023-04-29T10:51:29;16.30;97.00
9668;DHT22;4872;48.316;10.650;2023-04-29T10:53:58;16.40;97.80
9668;DHT22;4872;48.316;10.650;2023-04-29T10:56:38;16.50;98.00
9668;DHT22;4872;48.316;10.650;2023-04-29T10:59:09;16.50;97.20
9668;DHT22;4872;48.316;10.650;2023-04-29T11:01:48;16.60;96.60
9668;DHT22;4872;48.316;10.650;2023-04-29T11:04:16;16.60;97.00
9668;DHT22;4872;48.316;10.650;2023-04-29T11:06:50;16.70;97.30
9668;DHT22;4872;48.316;10.650;2023-04-29T11:09:20;16.50;95.90
9668;DHT22;4872;48.316;10.650;2023-04-29T11:12:00;16.40;97.30
9668;DHT22;4872;48.316;10.650;2023-04-29T11:14:30;16.40;95.70
9668;DHT22;4872;48.316;10.650;2023-04-29T11:16:58;16.50;96.80
9668;DHT22;4872;48.316;10.650;2023-04-29T11:19:29;17.20;96.90
9668;DHT22;4872;48.316;10.650;2023-04-29T11:22:12;16.50;95.50
9668;DHT22;4872;48.316;10.650;2023-04-29T11:24:49;16.60;96.30
9668;DHT22;4872;48.316;10.650;2023-04-29T11:27:17;16.70;97.30
9668;DHT22;4872;48.316;10.650;2023-04-29T11:29:44;16.60;96.50
9668;DHT22;4872;48.316;10.650;2023-04-29T11:32:12;16.70;96.30
9668;DHT22;4872;48.316;10.650;2023-04-29T11:34:38;16.80;96.50
9668;DHT22;4872;48.316;10.650;2023-04-29T11:37:05;16.80;96.50
9668;DHT22;4872;48.316;10.650;2023-04-29T11:39:34;16.80;96.00
9668;DHT22;4872;48.316;10.650;2023-04-29T11:42:04;17.00;95.90
9668;DHT22;4872;48.316;10.650;2023-04-29T11:44:33;17.00;96.00
9668;DHT22;4872;48.316;10.650;2023-04-29T11:47:03;17.10;96.20
9668;DHT22;4872;48.316;10.650;2023-04-29T11:49:30;17.20;94.90
9668;DHT22;4872;48.316;10.650;2023-04-29T11:51:57;17.00;93.80
9668;DHT22;4872;48.316;10.650;2023-04-29T11:54:25;17.00;94.70
9668;DHT22;4872;48.316;10.650;2023-04-29T11:56:54;17.10;94.60
9668;DHT22;4872;48.316;10.650;2023-04-29T11:59:21;17.00;94.30
9668;DHT22;4872;48.316;10.650;2023-04-29T12:01:48;17.20;94.80
9668;DHT22;4872;48.316;10.650;2023-04-29T12:04:14;17.00;93.20
9668;DHT22;4872;48.316;10.650;2023-04-29T12:06:41;17.30;93.90
9668;DHT22;4872;48.316;10.650;2023-04-29T12:09:08;17.50;93.30
9668;DHT22;4872;48.316;10.650;2023-04-29T12:11:36;17.80;93.70
9668;DHT22;4872;48.316;10.650;2023-04-29T12:14:04;17.60;93.50
9668;DHT22;4872;48.316;10.650;2023-04-29T12:16:32;17.70;93.10
9668;DHT22;4872;48.316;10.650;2023-04-29T12:18:59;17.80;92.70
9668;DHT22;4872;48.316;10.650;2023-04-29T12:21:26;18.00;92.70
9668;DHT22;4872;48.316;10.650;2023-04-29T12:23:53;18.60;93.30
9668;DHT22;4872;48.316;10.650;2023-04-29T12:26:20;18.60;92.40
9668;DHT22;4872;48.316;10.650;2023-04-29T12:28:53;18.30;92.80
9668;DHT22;4872;48.316;10.650;2023-04-29T12:31:21;18.40;92.00
9668;DHT22;4872;48.316;10.650;2023-04-29T12:33:48;18.10;91.10
9668;DHT22;4872;48.316;10.650;2023-04-29T12:36:19;19.20;91.40
9668;DHT22;4872;48.316;10.650;2023-04-29T12:38:47;19.00;91.70
9668;DHT22;4872;48.316;10.650;2023-04-29T12:41:14;18.90;91.20
9668;DHT22;4872;48.316;10.650;2023-04-29T12:43:42;18.90;90.70
9668;DHT22;4872;48.316;10.650;2023-04-29T12:46:09;19.00;90.40
9668;DHT22;4872;48.316;10.650;2023-04-29T12:48:40;19.10;90.40
9668;DHT22;4872;48.316;10.650;2023-04-29T12:51:08;19.40;90.00
9668;DHT22;4872;48.316;10.650;2023-04-29T12:53:36;19.10;89.00
9668;DHT22;4872;48.316;10.650;2023-04-29T12:56:04;19.10;90.60
9668;DHT22;4872;48.316;10.650;2023-04-29T12:58:31;19.10;88.50
9668;DHT22;4872;48.316;10.650;2023-04-29T13:00:59;19.40;90.40
9668;DHT22;4872;48.316;10.650;2023-04-29T13:03:25;19.90;89.00
9668;DHT22;4872;48.316;10.650;2023-04-29T13:05:54;19.00;85.20
9668;DHT22;4872;48.316;10.650;2023-04-29T13:08:20;19.40;89.20
9668;DHT22;4872;48.316;10.650;2023-04-29T13:10:47;19.60;88.00
9668;DHT22;4872;48.316;10.650;2023-04-29T13:13:14;19.60;86.10
9668;DHT22;4872;48.316;10.650;2023-04-29T13:15:41;19.70;85.00
9668;DHT22;4872;48.316;10.650;2023-04-29T13:18:07;19.30;83.00
9668;DHT22;4872;48.316;10.650;2023-04-29T13:20:34;19.40;84.50
9668;DHT22;4872;48.316;10.650;2023-04-29T13:23:02;19.10;83.10
9668;DHT22;4872;48.316;10.650;2023-04-29T13:25:29;19.30;84.30
9668;DHT22;4872;48.316;10.650;2023-04-29T13:27:56;19.60;84.30
9668;DHT22;4872;48.316;10.650;2023-04-29T13:30:23;19.80;83.90
9668;DHT22;4872;48.316;10.650;2023-04-29T13:32:49;20.20;85.40
9668;DHT22;4872;48.316;10.650;2023-04-29T13:35:16;20.50;81.80
9668;DHT22;4872;48.316;10.650;2023-04-29T13:37:43;20.60;81.40
9668;DHT22;4872;48.316;10.650;2023-04-29T13:40:11;20.30;79.10
9668;DHT22;4872;48.316;10.650;2023-04-29T13:42:38;20.40;82.20
9668;DHT22;4872;48.316;10.650;2023-04-29T13:45:05;20.80;81.70
9668;DHT22;4872;48.316;10.650;2023-04-29T13:47:33;21.00;83.00
9668;DHT22;4872;48.316;10.650;2023-04-29T13:50:00;21.30;80.20
9668;DHT22;4872;48.316;10.650;2023-04-29T13:52:27;21.00;78.20
9668;DHT22;4872;48.316;10.650;2023-04-29T13:55:00;21.20;80.70
9668;DHT22;4872;48.316;10.650;2023-04-29T13:57:32;21.40;81.20
9668;DHT22;4872;48.316;10.650;2023-04-29T14:00:08;22.00;81.10
9668;DHT22;4872;48.316;10.650;2023-04-29T14:02:50;22.40;78.50
9668;DHT22;4872;48.316;10.650;2023-04-29T14:05:20;22.60;76.30
9668;DHT22;4872;48.316;10.650;2023-04-29T14:07:52;22.70;76.50
9668;DHT22;4872;48.316;10.650;2023-04-29T14:10:21;22.10;75.50
9668;DHT22;4872;48.316;10.650;2023-04-29T14:12:52;22.30;77.40
9668;DHT22;4872;48.316;10.650;2023-04-29T14:15:22;22.50;77.00
9668;DHT22;4872;48.316;10.650;2023-04-29T14:17:49;22.90;76.50
9668;DHT22;4872;48.316;10.650;2023-04-29T14:20:17;23.10;76.10
9668;DHT22;4872;48.316;10.650;2023-04-29T14:22:45;23.10;74.10
9668;DHT22;4872;48.316;10.650;2023-04-29T14:25:12;22.70;73.60
9668;DHT22;4872;48.316;10.650;2023-04-29T14:27:39;22.40;73.30
9668;DHT22;4872;48.316;10.650;2023-04-29T14:30:08;22.80;74.40
9668;DHT22;4872;48.316;10.650;2023-04-29T14:32:35;23.00;73.80
9668;DHT22;4872;48.316;10.650;2023-04-29T14:35:02;23.00;73.50
9668;DHT22;4872;48.316;10.650;2023-04-29T14:37:29;22.60;71.00
9668;DHT22;4872;48.316;10.650;2023-04-29T14:39:59;22.50;71.60
9668;DHT22;4872;48.316;10.650;2023-04-29T14:42:26;22.00;72.50
9668;DHT22;4872;48.316;10.650;2023-04-29T14:44:53;22.10;73.00
9668;DHT22;4872;48.316;10.650;2023-04-29T14:47:21;22.10;72.40
9668;DHT22;4872;48.316;10.650;2023-04-29T14:49:48;22.20;73.50
9668;DHT22;4872;48.316;10.650;2023-04-29T14:52:15;22.20;73.40
9668;DHT22;4872;48.316;10.650;2023-04-29T14:54:42;21.80;74.50
9668;DHT22;4872;48.316;10.650;2023-04-29T14:57:11;22.20;75.20
9668;DHT22;4872;48.316;10.650;2023-04-29T14:59:38;22.00;73.30
9668;DHT22;4872;48.316;10.650;2023-04-29T15:02:06;22.00;72.10
9668;DHT22;4872;48.316;10.650;2023-04-29T15:04:34;22.00;73.40
9668;DHT22;4872;48.316;10.650;2023-04-29T15:07:02;22.30;72.10
9668;DHT22;4872;48.316;10.650;2023-04-29T15:09:29;22.60;71.80
9668;DHT22;4872;48.316;10.650;2023-04-29T15:11:56;22.50;70.30
9668;DHT22;4872;48.316;10.650;2023-04-29T15:14:23;22.60;70.40
9668;DHT22;4872;48.316;10.650;2023-04-29T15:16:50;22.60;69.90
9668;DHT22;4872;48.316;10.650;2023-04-29T15:19:17;22.90;70.50
9668;DHT22;4872;48.316;10.650;2023-04-29T15:21:46;22.60;70.40
9668;DHT22;4872;48.316;10.650;2023-04-29T15:24:12;21.90;69.60
9668;DHT22;4872;48.316;10.650;2023-04-29T15:26:39;22.00;68.30
9668;DHT22;4872;48.316;10.650;2023-04-29T15:29:06;21.70;70.00
9668;DHT22;4872;48.316;10.650;2023-04-29T15:31:33;21.40;70.10
9668;DHT22;4872;48.316;10.650;2023-04-29T15:34:00;21.30;69.80
9668;DHT22;4872;48.316;10.650;2023-04-29T15:36:28;21.20;70.90
9668;DHT22;4872;48.316;10.650;2023-04-29T15:38:56;21.00;70.40
9668;DHT22;4872;48.316;10.650;2023-04-29T15:41:23;21.20;71.00
9668;DHT22;4872;48.316;10.650;2023-04-29T15:43:51;21.50;72.50
9668;DHT22;4872;48.316;10.650;2023-04-29T15:46:18;22.00;71.90
9668;DHT22;4872;48.316;10.650;2023-04-29T15:48:45;22.50;72.90
9668;DHT22;4872;48.316;10.650;2023-04-29T15:51:12;22.80;72.90
9668;DHT22;4872;48.316;10.650;2023-04-29T15:53:40;23.10;72.80
9668;DHT22;4872;48.316;10.650;2023-04-29T15:56:09;23.90;72.20
9668;DHT22;4872;48.316;10.650;2023-04-29T15:58:36;23.90;71.10
9668;DHT22;4872;48.316;10.650;2023-04-29T16:01:03;23.50;69.40
9668;DHT22;4872;48.316;10.650;2023-04-29T16:03:30;23.10;68.90
9668;DHT22;4872;48.316;10.650;2023-04-29T16:05:57;23.00;70.20
9668;DHT22;4872;48.316;10.650;2023-04-29T16:08:23;23.40;70.90
9668;DHT22;4872;48.316;10.650;2023-04-29T16:10:50;24.00;69.90
9668;DHT22;4872;48.316;10.650;2023-04-29T16:13:18;24.40;69.30
9668;DHT22;4872;48.316;10.650;2023-04-29T16:15:45;24.20;68.50
9668;DHT22;4872;48.316;10.650;2023-04-29T16:18:12;24.50;69.20
9668;DHT22;4872;48.316;10.650;2023-04-29T16:20:39;24.60;68.20
9668;DHT22;4872;48.316;10.650;2023-04-29T16:23:06;24.60;68.00
9668;DHT22;4872;48.316;10.650;2023-04-29T16:25:38;25.00;67.00
9668;DHT22;4872;48.316;10.650;2023-04-29T16:28:05;25.00;66.60
9668;DHT22;4872;48.316;10.650;2023-04-29T16:30:33;24.90;66.70
9668;DHT22;4872;48.316;10.650;2023-04-29T16:33:00;25.10;66.10
9668;DHT22;4872;48.316;10.650;2023-04-29T16:35:28;25.70;65.50
9668;DHT22;4872;48.316;10.650;2023-04-29T16:37:55;25.90;64.60
9668;DHT22;4872;48.316;10.650;2023-04-29T16:40:22;26.20;63.90
9668;DHT22;4872;48.316;10.650;2023-04-29T16:42:49;26.30;62.70
9668;DHT22;4872;48.316;10.650;2023-04-29T16:45:17;26.00;62.30
9668;DHT22;4872;48.316;10.650;2023-04-29T16:47:45;25.20;62.70
9668;DHT22;4872;48.316;10.650;2023-04-29T16:50:12;24.50;63.00
9668;DHT22;4872;48.316;10.650;2023-04-29T16:52:41;23.90;64.80
9668;DHT22;4872;48.316;10.650;2023-04-29T16:55:09;23.10;64.40
9668;DHT22;4872;48.316;10.650;2023-04-29T16:57:37;22.70;65.20
9668;DHT22;4872;48.316;10.650;2023-04-29T17:00:04;22.10;66.00
9668;DHT22;4872;48.316;10.650;2023-04-29T17:02:34;21.20;66.80
9668;DHT22;4872;48.316;10.650;2023-04-29T17:05:03;21.20;67.20
9668;DHT22;4872;48.316;10.650;2023-04-29T17:07:30;20.50;67.60
9668;DHT22;4872;48.316;10.650;2023-04-29T17:09:57;20.20;68.40
9668;DHT22;4872;48.316;10.650;2023-04-29T17:12:24;19.80;70.00
9668;DHT22;4872;48.316;10.650;2023-04-29T17:14:51;20.30;70.70
9668;DHT22;4872;48.316;10.650;2023-04-29T17:17:18;19.50;70.40
9668;DHT22;4872;48.316;10.650;2023-04-29T17:19:45;19.40;71.20
9668;DHT22;4872;48.316;10.650;2023-04-29T17:22:15;19.20;71.20
9668;DHT22;4872;48.316;10.650;2023-04-29T17:24:42;19.20;71.80
9668;DHT22;4872;48.316;10.650;2023-04-29T17:27:10;19.20;73.70
9668;DHT22;4872;48.316;10.650;2023-04-29T17:29:37;18.80;74.30
9668;DHT22;4872;48.316;10.650;2023-04-29T17:32:04;18.70;74.70
9668;DHT22;4872;48.316;10.650;2023-04-29T17:34:35;18.20;74.90
9668;DHT22;4872;48.316;10.650;2023-04-29T17:37:03;18.00;75.80
9668;DHT22;4872;48.316;10.650;2023-04-29T17:39:32;17.90;76.40
9668;DHT22;4872;48.316;10.650;2023-04-29T17:41:59;17.60;77.00
9668;DHT22;4872;48.316;10.650;2023-04-29T17:44:26;17.40;77.30
9668;DHT22;4872;48.316;10.650;2023-04-29T17:46:53;17.20;77.90
9668;DHT22;4872;48.316;10.650;2023-04-29T17:49:20;17.00;78.20
9668;DHT22;4872;48.316;10.650;2023-04-29T17:51:46;16.90;78.70
9668;DHT22;4872;48.316;10.650;2023-04-29T17:54:13;16.80;79.10
9668;DHT22;4872;48.316;10.650;2023-04-29T17:56:41;16.70;79.60
9668;DHT22;4872;48.316;10.650;2023-04-29T17:59:08;16.50;79.90
9668;DHT22;4872;48.316;10.650;2023-04-29T18:01:36;16.50;79.80
9668;DHT22;4872;48.316;10.650;2023-04-29T18:04:03;16.40;80.00
9668;DHT22;4872;48.316;10.650;2023-04-29T18:06:30;16.20;80.50
9668;DHT22;4872;48.316;10.650;2023-04-29T18:08:56;16.10;81.30
9668;DHT22;4872;48.316;10.650;2023-04-29T18:11:23;15.90;81.90
9668;DHT22;4872;48.316;10.650;2023-04-29T18:13:52;15.70;82.80
9668;DHT22;4872;48.316;10.650;2023-04-29T18:16:19;15.60;83.10
9668;DHT22;4872;48.316;10.650;2023-04-29T18:18:47;15.50;83.70
9668;DHT22;4872;48.316;10.650;2023-04-29T18:21:18;15.50;83.90
9668;DHT22;4872;48.316;10.650;2023-04-29T18:23:46;15.40;84.10
9668;DHT22;4872;48.316;10.650;2023-04-29T18:26:13;15.20;85.00
9668;DHT22;4872;48.316;10.650;2023-04-29T18:28:40;15.20;85.10
9668;DHT22;4872;48.316;10.650;2023-04-29T18:31:08;15.20;85.50
9668;DHT22;4872;48.316;10.650;2023-04-29T18:33:35;15.10;85.50
9668;DHT22;4872;48.316;10.650;2023-04-29T18:36:01;15.00;85.00
9668;DHT22;4872;48.316;10.650;2023-04-29T18:38:28;15.00;84.80
9668;DHT22;4872;48.316;10.650;2023-04-29T18:40:55;14.90;85.00
9668;DHT22;4872;48.316;10.650;2023-04-29T18:43:22;14.80;85.10
9668;DHT22;4872;48.316;10.650;2023-04-29T18:45:52;14.90;85.40
9668;DHT22;4872;48.316;10.650;2023-04-29T18:48:21;14.70;85.30
9668;DHT22;4872;48.316;10.650;2023-04-29T18:50:49;14.60;85.80
9668;DHT22;4872;48.316;10.650;2023-04-29T18:53:16;14.50;85.90
9668;DHT22;4872;48.316;10.650;2023-04-29T18:55:43;14.50;86.20
9668;DHT22;4872;48.316;10.650;2023-04-29T18:58:10;14.50;86.30
9668;DHT22;4872;48.316;10.650;2023-04-29T19:00:37;14.50;86.30
9668;DHT22;4872;48.316;10.650;2023-04-29T19:03:04;14.50;86.90
9668;DHT22;4872;48.316;10.650;2023-04-29T19:05:32;14.40;86.90
9668;DHT22;4872;48.316;10.650;2023-04-29T19:07:59;14.40;87.20
9668;DHT22;4872;48.316;10.650;2023-04-29T19:10:26;14.30;87.70
9668;DHT22;4872;48.316;10.650;2023-04-29T19:12:53;14.30;88.00
9668;DHT22;4872;48.316;10.650;2023-04-29T19:15:19;14.30;88.00
9668;DHT22;4872;48.316;10.650;2023-04-29T19:17:48;14.30;88.10
9668;DHT22;4872;48.316;10.650;2023-04-29T19:20:15;14.20;88.20
9668;DHT22;4872;48.316;10.650;2023-04-29T19:22:43;14.20;88.10
9668;DHT22;4872;48.316;10.650;2023-04-29T19:25:10;14.20;88.10
9668;DHT22;4872;48.316;10.650;2023-04-29T19:27:37;14.20;87.80
9668;DHT22;4872;48.316;10.650;2023-04-29T19:30:06;14.50;88.40
9668;DHT22;4872;48.316;10.650;2023-04-29T19:32:33;14.10;88.30
9668;DHT22;4872;48.316;10.650;2023-04-29T19:35:00;14.00;88.00
9668;DHT22;4872;48.316;10.650;2023-04-29T19:37:27;14.70;89.30
9668;DHT22;4872;48.316;10.650;2023-04-29T19:39:55;13.90;89.00
9668;DHT22;4872;48.316;10.650;2023-04-29T19:42:22;13.90;88.60
9668;DHT22;4872;48.316;10.650;2023-04-29T19:44:48;14.70;89.60
9668;DHT22;4872;48.316;10.650;2023-04-29T19:47:15;13.90;88.90
9668;DHT22;4872;48.316;10.650;2023-04-29T19:49:42;13.80;89.10
9668;DHT22;4872;48.316;10.650;2023-04-29T19:52:08;13.80;89.40
9668;DHT22;4872;48.316;10.650;2023-04-29T19:54:35;13.80;89.80